Terminal Aerodrome Forecast
Issued by NWS

Home | Current Version | Previous Version | Graphics & Text | Print | Product List | Glossary On
Versions: 1 2 3 4 5 6 7 8 9 10 11 12 13 14 15 16 17
000
FTUS43 KGRB 271400 AAA
TAFMTW
TAF AMD
KMTW 271402Z 2714/2812 27010G15KT P6SM SCT080 SCT150
     FM271500 29011KT P6SM VCSH SCT035 BKN080
      TEMPO 2716/2720 3SM -SHRA BR SCT020 BKN030
     FM272200 36014G19KT P6SM VCSH SCT015 BKN040
     FM280100 35012KT P6SM BKN100
     FM280400 36011KT P6SM FEW100=

USA.gov is the U.S. government's official web portal to all federal, state and local government web resources and services.